createdAt,value
2017-11-30T00:01:18.968Z,59.03
2017-11-30T00:03:53.263Z,68.13
2017-11-30T00:06:27.147Z,58.77
2017-11-30T00:22:54.678Z,61.80
2017-11-30T00:25:28.500Z,60.70
2017-11-30T00:28:01.512Z,60.67
2017-11-30T00:30:34.432Z,68.70
2017-11-30T00:33:11.591Z,61.90
2017-11-30T00:35:44.579Z,57.63
2017-11-30T00:38:17.956Z,70.73
2017-11-30T00:40:50.874Z,72.37
2017-11-30T00:43:30.850Z,63.20
2017-11-30T00:46:11.148Z,68.20
2017-11-30T00:48:44.289Z,62.93
2017-11-30T00:51:17.384Z,59.50
2017-11-30T00:53:57.150Z,68.27
2017-11-30T00:56:30.760Z,71.93
2017-11-30T00:59:03.788Z,66.40
2017-11-30T01:01:36.893Z,70.53
2017-11-30T01:04:10.626Z,66.27
2017-11-30T01:06:44.424Z,66.23
2017-11-30T01:09:18.260Z,66.80
2017-11-30T01:11:51.599Z,68.80
2017-11-30T01:14:24.854Z,62.87
2017-11-30T01:16:58.660Z,78.33
2017-11-30T01:19:31.720Z,69.97
2017-11-30T01:22:05.474Z,69.03
2017-11-30T01:24:39.178Z,73.30
2017-11-30T01:27:12.142Z,74.70
2017-11-30T01:29:45.151Z,70.13
2017-11-30T01:32:18.202Z,65.17
2017-11-30T01:34:51.340Z,70.57
2017-11-30T01:37:25.695Z,84.43
2017-11-30T01:39:59.134Z,69.67
2017-11-30T01:42:31.995Z,68.57
2017-11-30T01:52:53.390Z,67.40
2017-11-30T01:55:27.484Z,77.20
2017-11-30T01:58:00.429Z,74.50
2017-11-30T02:00:33.310Z,81.67
2017-11-30T02:03:06.210Z,78.73
2017-11-30T02:05:39.218Z,83.07
2017-11-30T02:08:12.155Z,83.17
2017-11-30T02:10:45.168Z,86.47
2017-11-30T02:13:18.181Z,77.83
2017-11-30T02:15:51.278Z,100.03
2017-11-30T02:18:24.250Z,88.00
2017-11-30T02:20:57.392Z,93.10
2017-11-30T02:23:30.409Z,87.70
2017-11-30T02:26:03.411Z,97.53
2017-11-30T02:28:36.579Z,85.00
2017-11-30T02:31:10.652Z,82.73
2017-11-30T02:33:43.793Z,100.43
2017-11-30T02:36:17.921Z,88.97
2017-11-30T02:38:50.940Z,95.03
2017-11-30T02:41:24.622Z,96.00
2017-11-30T02:43:57.613Z,82.00
2017-11-30T02:46:30.604Z,71.70
2017-11-30T02:49:03.665Z,73.97
2017-11-30T02:51:37.583Z,83.60
2017-11-30T02:54:11.317Z,77.50
2017-11-30T02:56:44.497Z,92.00
2017-11-30T02:59:17.520Z,72.20
2017-11-30T03:01:50.786Z,80.93
2017-11-30T03:04:23.823Z,100.80
2017-11-30T03:06:58.872Z,90.50
2017-11-30T03:09:32.047Z,96.13
2017-11-30T03:12:05.973Z,81.30
2017-11-30T03:14:38.964Z,85.53
2017-11-30T03:17:11.903Z,74.97
2017-11-30T03:19:44.894Z,70.63
2017-11-30T03:22:18.714Z,83.97
2017-11-30T03:24:51.893Z,84.63
2017-11-30T03:27:24.954Z,90.10
2017-11-30T03:29:58.197Z,88.67
2017-11-30T03:32:31.361Z,93.13
2017-11-30T03:35:04.833Z,87.67
2017-11-30T03:37:38.702Z,89.90
2017-11-30T03:40:11.935Z,98.30
2017-11-30T03:42:45.043Z,82.80
2017-11-30T03:45:18.725Z,104.93
2017-11-30T03:47:51.923Z,103.10
2017-11-30T03:50:26.675Z,105.93
2017-11-30T03:53:00.595Z,117.77
2017-11-30T03:55:33.626Z,122.50
2017-11-30T03:58:06.706Z,134.13
2017-11-30T04:00:39.353Z,123.83
2017-11-30T04:03:11.929Z,135.77
2017-11-30T04:05:44.474Z,146.17
2017-11-30T04:08:17.592Z,126.43
2017-11-30T04:10:51.541Z,129.10
2017-11-30T04:13:24.880Z,118.33
2017-11-30T04:16:00.094Z,145.67
2017-11-30T04:18:33.273Z,143.50
2017-11-30T04:21:06.939Z,158.30
2017-11-30T04:23:40.035Z,147.73
2017-11-30T04:26:13.945Z,127.63
2017-11-30T04:28:48.810Z,131.50
2017-11-30T04:31:21.817Z,127.80
2017-11-30T04:33:55.660Z,140.80
2017-11-30T04:36:29.411Z,125.53
2017-11-30T04:39:02.331Z,137.13
2017-11-30T04:41:36.389Z,172.13
2017-11-30T04:44:09.500Z,169.20
2017-11-30T04:46:42.610Z,154.30
2017-11-30T04:49:16.672Z,162.97
2017-11-30T04:51:49.718Z,163.93
2017-11-30T04:54:22.941Z,215.23
2017-11-30T04:56:56.037Z,162.27
2017-11-30T04:59:29.687Z,153.90
2017-11-30T05:02:02.785Z,165.03
2017-11-30T05:04:36.077Z,163.47
2017-11-30T05:07:09.835Z,131.20
2017-11-30T05:09:42.841Z,124.53
2017-11-30T05:12:17.585Z,120.63
2017-11-30T05:14:50.719Z,120.87
2017-11-30T05:17:23.711Z,112.53
2017-11-30T05:19:56.579Z,123.73
2017-11-30T05:22:30.531Z,110.47
2017-11-30T05:25:03.596Z,95.87
2017-11-30T05:27:36.506Z,102.17
2017-11-30T05:30:10.351Z,104.97
2017-11-30T05:32:43.282Z,97.47
2017-11-30T05:35:17.337Z,91.27
2017-11-30T05:37:50.291Z,92.33
2017-11-30T05:40:24.165Z,84.50
2017-11-30T05:42:57.828Z,82.30
2017-11-30T05:45:30.824Z,67.40
2017-11-30T05:48:04.635Z,73.23
2017-11-30T05:50:37.724Z,68.90
2017-11-30T05:53:10.664Z,61.50
2017-11-30T05:55:44.726Z,55.97
2017-11-30T05:58:17.803Z,57.20
2017-11-30T06:00:50.895Z,55.03
2017-11-30T06:04:12.620Z,57.37
2017-11-30T06:06:45.749Z,50.90
2017-11-30T06:09:18.586Z,53.10
2017-11-30T06:11:52.667Z,54.03
2017-11-30T06:14:25.795Z,47.87
2017-11-30T06:16:58.929Z,49.23
2017-11-30T06:19:31.902Z,40.00
2017-11-30T06:22:06.804Z,44.03
2017-11-30T06:24:39.785Z,46.23
2017-11-30T06:27:13.443Z,44.77
2017-11-30T06:29:46.443Z,40.97
2017-11-30T06:32:19.530Z,50.33
2017-11-30T06:34:54.204Z,56.20
2017-11-30T06:37:28.398Z,53.93
2017-11-30T06:40:01.395Z,48.13
2017-11-30T06:42:39.429Z,59.03
2017-11-30T06:45:12.655Z,59.90
2017-11-30T06:47:46.597Z,57.87
2017-11-30T06:50:20.617Z,75.13
2017-11-30T06:52:53.629Z,65.30
2017-11-30T06:55:26.669Z,65.60
2017-11-30T06:58:00.470Z,59.27
2017-11-30T07:00:34.522Z,54.13
2017-11-30T07:03:09.670Z,64.93
2017-11-30T07:05:42.604Z,64.83
2017-11-30T07:08:16.454Z,62.40
2017-11-30T07:10:50.150Z,65.30
2017-11-30T07:13:23.063Z,63.23
2017-11-30T07:15:56.025Z,69.53
2017-11-30T07:18:29.709Z,61.33
2017-11-30T07:21:03.390Z,57.30
2017-11-30T07:23:37.171Z,62.07
2017-11-30T07:26:10.280Z,60.83
2017-11-30T07:28:44.132Z,59.97
2017-11-30T07:31:17.143Z,68.33
2017-11-30T07:33:50.300Z,64.17
2017-11-30T07:36:23.184Z,72.27
2017-11-30T07:38:57.704Z,62.70
2017-11-30T07:41:31.488Z,63.47
2017-11-30T07:44:06.901Z,60.77
2017-11-30T07:46:39.928Z,68.67
2017-11-30T07:49:13.032Z,69.87
2017-11-30T07:51:45.980Z,62.87
2017-11-30T07:54:19.173Z,71.20
2017-11-30T07:56:52.240Z,69.97
2017-11-30T07:59:26.130Z,53.90
2017-11-30T08:01:59.033Z,77.27
2017-11-30T08:04:32.988Z,63.70
2017-11-30T08:07:08.236Z,82.03
2017-11-30T08:09:41.216Z,78.70
2017-11-30T08:12:14.170Z,85.43
2017-11-30T08:14:47.159Z,72.37
2017-11-30T08:17:21.009Z,78.87
2017-11-30T08:19:54.166Z,66.03
2017-11-30T08:22:27.376Z,76.50
2017-11-30T08:25:00.436Z,68.53
2017-11-30T08:27:33.357Z,86.30
2017-11-30T08:30:09.132Z,85.90
2017-11-30T08:32:42.163Z,95.43
2017-11-30T08:35:15.713Z,93.27
2017-11-30T08:37:48.746Z,70.03
2017-11-30T08:40:22.023Z,84.93
2017-11-30T08:42:55.122Z,70.80
2017-11-30T08:45:29.054Z,68.03
2017-11-30T08:48:02.112Z,74.03
2017-11-30T08:50:36.506Z,90.13
2017-11-30T08:53:09.497Z,74.70
2017-11-30T08:55:42.617Z,92.57
2017-11-30T08:58:15.526Z,79.57
2017-11-30T09:00:48.654Z,87.40
2017-11-30T09:03:25.325Z,88.17
2017-11-30T09:05:58.421Z,78.80
2017-11-30T09:08:31.434Z,98.87
2017-11-30T09:11:05.512Z,96.80
2017-11-30T09:13:38.393Z,94.40
2017-11-30T09:16:11.344Z,108.13
2017-11-30T09:18:44.289Z,79.80
2017-11-30T09:21:17.298Z,108.53
2017-11-30T09:23:51.059Z,93.17
2017-11-30T09:26:24.982Z,81.27
2017-11-30T09:28:57.808Z,85.97
2017-11-30T09:31:30.927Z,110.93
2017-11-30T09:34:04.065Z,103.07
2017-11-30T09:36:38.913Z,113.27
2017-11-30T09:39:12.039Z,105.10
2017-11-30T09:41:44.995Z,96.37
2017-11-30T09:44:18.267Z,109.80
2017-11-30T09:46:51.208Z,99.17
2017-11-30T09:49:24.492Z,116.10
2017-11-30T09:51:57.550Z,93.27
2017-11-30T09:54:30.640Z,99.70
2017-11-30T09:57:03.978Z,98.70
2017-11-30T09:59:40.232Z,111.43
2017-11-30T10:02:14.314Z,119.87
2017-11-30T10:04:47.415Z,103.87
2017-11-30T10:07:20.459Z,99.47
2017-11-30T10:09:53.457Z,131.50
2017-11-30T10:12:26.326Z,116.60
2017-11-30T10:15:00.221Z,97.57
2017-11-30T10:17:40.166Z,129.23
2017-11-30T10:20:13.866Z,99.87
2017-11-30T10:22:46.921Z,108.47
2017-11-30T10:25:20.807Z,91.37
2017-11-30T10:27:53.896Z,94.77
2017-11-30T10:30:26.984Z,83.10
2017-11-30T10:33:00.050Z,92.07
2017-11-30T10:35:33.062Z,105.70
2017-11-30T10:38:07.153Z,91.97
2017-11-30T10:40:41.109Z,78.93
2017-11-30T10:43:14.257Z,116.93
2017-11-30T10:45:47.398Z,87.13
2017-11-30T10:48:20.555Z,111.80
2017-11-30T10:50:53.816Z,79.03
2017-11-30T10:53:27.722Z,112.77
2017-11-30T10:56:00.666Z,81.93
2017-11-30T10:58:33.813Z,88.03
2017-11-30T11:01:07.951Z,79.40
2017-11-30T11:03:41.041Z,84.50
2017-11-30T11:06:13.879Z,98.33
2017-11-30T11:08:47.690Z,66.00
2017-11-30T11:11:22.126Z,65.23
2017-11-30T11:13:58.926Z,75.20
2017-11-30T11:16:31.981Z,75.97
2017-11-30T11:19:08.945Z,76.87
2017-11-30T11:21:42.790Z,88.33
2017-11-30T11:24:15.863Z,102.43
2017-11-30T11:26:48.886Z,69.40
2017-11-30T11:29:25.857Z,112.60
2017-11-30T11:31:58.955Z,91.77
2017-11-30T11:34:32.059Z,72.93
2017-11-30T11:37:05.279Z,75.90
2017-11-30T11:39:39.333Z,106.70
2017-11-30T11:42:12.302Z,77.43
2017-11-30T11:44:45.486Z,106.73
2017-11-30T11:47:18.626Z,85.87
2017-11-30T11:49:51.921Z,96.87
2017-11-30T11:52:24.882Z,122.57
2017-11-30T11:54:58.329Z,99.70
2017-11-30T11:57:31.529Z,94.87
2017-11-30T12:00:06.155Z,110.43
2017-11-30T12:02:39.269Z,106.80
2017-11-30T12:05:12.527Z,100.17
2017-11-30T12:07:45.896Z,77.90
2017-11-30T12:10:19.197Z,83.00
2017-11-30T12:12:53.731Z,77.07
2017-11-30T12:15:27.066Z,86.73
2017-11-30T12:18:00.228Z,74.27
2017-11-30T12:20:33.370Z,86.43
2017-11-30T12:23:08.304Z,78.07
2017-11-30T12:25:41.679Z,60.43
2017-11-30T12:28:14.917Z,76.30
2017-11-30T12:30:48.964Z,72.03
2017-11-30T12:33:22.016Z,62.97
2017-11-30T12:35:55.912Z,73.17
2017-11-30T12:38:29.229Z,73.63
2017-11-30T12:41:03.052Z,63.60
2017-11-30T12:43:38.717Z,100.27
2017-11-30T12:46:11.872Z,75.40
2017-11-30T12:48:45.647Z,79.07
2017-11-30T12:51:18.902Z,77.03
2017-11-30T12:53:51.768Z,63.23
2017-11-30T12:56:26.707Z,64.70
2017-11-30T12:58:59.642Z,72.40
2017-11-30T13:01:33.547Z,62.53
2017-11-30T13:04:09.173Z,69.93
2017-11-30T13:06:42.399Z,73.10
2017-11-30T13:09:15.339Z,73.07
2017-11-30T13:11:48.666Z,72.93
2017-11-30T13:14:21.191Z,74.20
2017-11-30T13:16:55.033Z,78.37
2017-11-30T13:19:28.214Z,80.63
2017-11-30T13:22:01.352Z,77.13
2017-11-30T13:24:37.198Z,102.73
2017-11-30T13:27:10.697Z,67.87
2017-11-30T13:29:43.806Z,77.23
2017-11-30T13:32:17.017Z,68.10
2017-11-30T13:34:52.428Z,72.53
2017-11-30T13:37:25.944Z,74.60
2017-11-30T13:39:59.752Z,72.50
2017-11-30T13:42:32.327Z,79.67
2017-11-30T13:45:04.860Z,77.83
2017-11-30T13:47:38.548Z,77.73
2017-11-30T13:50:12.014Z,78.10
2017-11-30T13:52:45.370Z,83.13
2017-11-30T13:55:17.956Z,71.70
2017-11-30T13:57:50.579Z,65.90
2017-11-30T14:00:23.886Z,60.77
2017-11-30T14:02:57.222Z,79.07
2017-11-30T14:05:29.773Z,62.70
2017-11-30T14:08:02.326Z,66.13
2017-11-30T14:10:37.432Z,72.67
2017-11-30T14:13:10.001Z,77.23
2017-11-30T14:15:42.514Z,61.60
2017-11-30T14:18:15.842Z,65.70
2017-11-30T14:20:48.371Z,64.40
2017-11-30T14:23:20.917Z,61.53
2017-11-30T14:25:54.380Z,67.23
2017-11-30T14:28:26.925Z,68.80
2017-11-30T14:30:59.456Z,69.93
2017-11-30T14:33:31.995Z,66.17
2017-11-30T14:36:07.096Z,60.67
2017-11-30T14:38:39.649Z,65.00
2017-11-30T14:41:12.166Z,62.73
2017-11-30T14:43:45.490Z,61.47
2017-11-30T14:46:18.016Z,61.93
2017-11-30T14:48:50.568Z,62.20
2017-11-30T14:51:23.100Z,64.67
2017-11-30T14:53:56.404Z,59.87
2017-11-30T14:56:28.960Z,72.97
2017-11-30T14:59:02.370Z,61.80
2017-11-30T15:01:35.828Z,63.47
2017-11-30T15:06:47.325Z,61.60
2017-11-30T15:09:19.902Z,69.63
2017-11-30T15:11:52.434Z,56.73
2017-11-30T15:14:24.973Z,57.97
2017-11-30T15:16:58.285Z,54.27
2017-11-30T15:19:31.610Z,61.03
2017-11-30T15:22:04.155Z,55.30
2017-11-30T15:24:38.920Z,62.70
2017-11-30T15:27:11.485Z,55.20
2017-11-30T15:29:44.019Z,52.33
2017-11-30T15:32:16.575Z,54.77
2017-11-30T15:34:49.117Z,53.67
2017-11-30T15:37:21.662Z,54.20
2017-11-30T15:39:54.977Z,52.17
2017-11-30T15:42:27.514Z,55.57
2017-11-30T15:45:00.113Z,54.30
2017-11-30T15:47:32.634Z,55.93
2017-11-30T15:50:05.183Z,52.13
2017-11-30T15:52:37.754Z,46.00
2017-11-30T15:55:10.296Z,51.70
2017-11-30T15:57:43.613Z,50.67
2017-11-30T16:00:16.921Z,51.33
2017-11-30T16:02:49.460Z,50.07
2017-11-30T16:05:22.074Z,53.97
2017-11-30T16:07:54.636Z,46.03
2017-11-30T16:10:27.967Z,56.80
2017-11-30T16:13:00.495Z,54.90
2017-11-30T16:15:33.808Z,55.30
2017-11-30T16:18:09.191Z,57.50
2017-11-30T16:20:42.079Z,50.20
2017-11-30T16:23:14.815Z,46.57
2017-11-30T16:25:47.418Z,56.07
2017-11-30T16:28:20.052Z,55.80
2017-11-30T16:30:52.938Z,46.30
2017-11-30T16:33:26.349Z,41.50
2017-11-30T16:35:58.981Z,50.53
2017-11-30T16:38:32.387Z,48.00
2017-11-30T16:41:04.997Z,41.10
2017-11-30T16:43:39.101Z,41.43
2017-11-30T16:46:12.508Z,41.90
2017-11-30T16:48:45.055Z,41.30
2017-11-30T16:51:17.688Z,41.97
2017-11-30T16:53:50.275Z,41.37
2017-11-30T16:56:22.814Z,40.00
2017-11-30T16:58:55.341Z,44.17
2017-11-30T17:01:27.880Z,39.83
2017-11-30T17:04:00.411Z,39.10
2017-11-30T17:06:32.971Z,38.77
2017-11-30T17:09:08.839Z,41.93
2017-11-30T17:11:41.405Z,41.93
2017-11-30T17:14:13.934Z,39.93
2017-11-30T17:16:46.488Z,39.57
2017-11-30T17:19:19.800Z,35.83
2017-11-30T17:21:52.339Z,33.27
2017-11-30T17:24:25.730Z,37.10
2017-11-30T17:26:59.162Z,35.33
2017-11-30T17:29:31.720Z,35.33
2017-11-30T17:32:05.134Z,34.27
2017-11-30T17:34:37.653Z,36.80
2017-11-30T17:37:11.751Z,35.13
2017-11-30T17:39:44.318Z,36.37
2017-11-30T17:42:16.899Z,37.60
2017-11-30T17:44:49.472Z,38.27
2017-11-30T17:47:22.142Z,33.73
2017-11-30T17:49:58.627Z,40.43
2017-11-30T17:52:31.247Z,38.20
2017-11-30T17:55:03.889Z,31.80
2017-11-30T17:57:40.439Z,38.97
2017-11-30T18:00:13.006Z,34.23
2017-11-30T18:02:45.616Z,32.27
2017-11-30T18:05:18.221Z,31.67
2017-11-30T18:07:50.863Z,33.50
2017-11-30T18:10:23.481Z,33.97
2017-11-30T18:12:56.892Z,36.33
2017-11-30T18:15:29.446Z,34.13
2017-11-30T18:18:01.992Z,38.70
2017-11-30T18:20:35.279Z,36.73
2017-11-30T18:23:07.829Z,33.30
2017-11-30T18:25:40.346Z,39.73
2017-11-30T18:28:12.901Z,34.47
2017-11-30T18:30:45.453Z,31.53
2017-11-30T18:33:18.003Z,28.50
2017-11-30T18:35:51.297Z,29.63
2017-11-30T18:38:24.603Z,32.53
2017-11-30T18:40:57.126Z,30.27
2017-11-30T18:43:29.681Z,33.17
2017-11-30T18:46:02.215Z,26.10
2017-11-30T18:48:38.213Z,28.57
2017-11-30T18:51:10.735Z,26.33
2017-11-30T18:53:44.065Z,28.73
2017-11-30T18:56:16.580Z,28.03
2017-11-30T18:58:49.132Z,28.70
2017-11-30T19:01:21.658Z,32.23
2017-11-30T19:03:54.212Z,28.93
2017-11-30T19:06:26.729Z,29.10
2017-11-30T19:09:00.040Z,27.33
2017-11-30T19:11:32.564Z,27.03
2017-11-30T19:14:06.242Z,28.70
2017-11-30T19:16:38.936Z,29.30
2017-11-30T19:19:11.483Z,27.10
2017-11-30T19:21:44.024Z,23.47
2017-11-30T19:24:17.351Z,24.30
2017-11-30T19:26:49.961Z,28.73
2017-11-30T19:29:22.568Z,35.27
2017-11-30T19:31:55.915Z,34.00
2017-11-30T19:34:28.521Z,31.73
2017-11-30T19:37:01.105Z,29.97
2017-11-30T19:39:34.438Z,33.17
2017-11-30T19:42:09.851Z,27.07
2017-11-30T19:44:42.386Z,30.40
2017-11-30T19:47:14.911Z,32.67
2017-11-30T19:49:48.222Z,27.53
2017-11-30T19:52:20.759Z,28.23
2017-11-30T19:54:53.590Z,31.90
2017-11-30T19:57:26.174Z,30.37
2017-11-30T19:59:58.754Z,29.27
2017-11-30T20:02:31.269Z,31.60
2017-11-30T20:05:03.814Z,30.47
2017-11-30T20:07:40.262Z,27.67
2017-11-30T20:10:12.863Z,29.33
2017-11-30T20:12:45.373Z,31.13
2017-11-30T20:15:17.914Z,29.17
2017-11-30T20:17:50.434Z,25.27
2017-11-30T20:20:23.807Z,31.63
2017-11-30T20:22:56.403Z,24.30
2017-11-30T20:25:28.958Z,26.10
2017-11-30T20:28:01.509Z,27.57
2017-11-30T20:30:34.041Z,23.63
2017-11-30T20:33:09.909Z,26.27
2017-11-30T20:35:42.469Z,25.93
2017-11-30T20:38:15.752Z,23.37
2017-11-30T20:40:49.073Z,25.90
2017-11-30T20:43:21.582Z,23.07
2017-11-30T20:45:54.130Z,24.53
2017-11-30T20:48:26.655Z,24.20
2017-11-30T20:50:59.206Z,26.13
2017-11-30T20:53:37.426Z,26.47
2017-11-30T20:56:09.989Z,22.80
2017-11-30T20:58:42.540Z,24.60
2017-11-30T21:01:15.099Z,25.67
2017-11-30T21:03:48.572Z,24.03
2017-11-30T21:06:21.163Z,27.53
2017-11-30T21:08:54.551Z,23.70
2017-11-30T21:11:27.133Z,27.07
2017-11-30T21:14:00.414Z,25.53
2017-11-30T21:16:32.977Z,22.57
2017-11-30T21:19:08.874Z,23.27
2017-11-30T21:21:41.448Z,25.77
2017-11-30T21:24:13.999Z,26.83
2017-11-30T21:26:47.345Z,25.50
2017-11-30T21:29:19.870Z,26.17
2017-11-30T21:31:52.459Z,27.80
2017-11-30T21:34:25.773Z,27.97
2017-11-30T21:36:58.321Z,26.23
2017-11-30T21:39:30.856Z,24.00
2017-11-30T21:42:03.414Z,27.40
2017-11-30T21:44:35.942Z,38.47
2017-11-30T21:47:09.352Z,30.03
2017-11-30T21:49:42.631Z,25.13
2017-11-30T21:52:15.176Z,24.20
2017-11-30T21:54:47.726Z,26.73
2017-11-30T21:57:20.342Z,25.13
2017-11-30T21:59:52.948Z,27.50
2017-11-30T22:02:26.341Z,26.43
2017-11-30T22:04:59.653Z,26.50
2017-11-30T22:07:32.970Z,33.43
2017-11-30T22:10:05.481Z,28.10
2017-11-30T22:12:38.051Z,26.30
2017-11-30T22:15:10.601Z,28.37
2017-11-30T22:17:43.163Z,27.67
2017-11-30T22:20:15.700Z,27.70
2017-11-30T22:22:49.050Z,24.97
2017-11-30T22:25:21.581Z,25.63
2017-11-30T22:27:54.901Z,27.07
2017-11-30T22:30:27.437Z,24.03
2017-11-30T22:33:00.020Z,23.87
2017-11-30T22:35:32.548Z,24.90
2017-11-30T22:38:05.099Z,27.63
2017-11-30T22:40:37.631Z,24.20
2017-11-30T22:43:10.224Z,23.33
2017-11-30T22:45:43.543Z,24.77
2017-11-30T22:48:16.088Z,26.13
2017-11-30T22:50:48.617Z,27.33
2017-11-30T22:53:21.166Z,21.93
2017-11-30T22:55:53.757Z,23.80
2017-11-30T22:58:30.277Z,24.90
2017-11-30T23:01:02.797Z,27.80
2017-11-30T23:03:35.351Z,23.53
2017-11-30T23:06:08.653Z,26.57
2017-11-30T23:08:41.228Z,27.97
2017-11-30T23:11:14.512Z,25.80
2017-11-30T23:13:47.817Z,23.00
2017-11-30T23:16:20.348Z,25.43
2017-11-30T23:18:52.949Z,27.90
2017-11-30T23:21:25.473Z,23.97
2017-11-30T23:23:58.024Z,25.90
2017-11-30T23:26:30.558Z,28.27
2017-11-30T23:29:03.867Z,26.87
2017-11-30T23:31:36.402Z,24.83
2017-11-30T23:34:08.977Z,25.73
2017-11-30T23:36:41.539Z,27.83
2017-11-30T23:39:16.214Z,29.37
2017-11-30T23:41:48.777Z,27.73
2017-11-30T23:44:21.357Z,26.30
2017-11-30T23:46:53.903Z,26.50
2017-11-30T23:49:27.477Z,28.30
2017-11-30T23:52:00.015Z,27.63
2017-11-30T23:54:32.659Z,31.87
2017-11-30T23:57:05.979Z,28.40
2017-11-30T23:59:38.524Z,27.77
